Time;durP1;ratioP1;P1;durP2;ratioP2;P2;SDS_P1;SDS_P2;PMS_P1;PMS_P2;Temp;Humidity;BMP_temperature;BMP_pressure;BME280_temperature;BME280_humidity;BME280_pressure;Samples;Min_cycle;Max_cycle;Signal;HPM_P1;HPM_P2
2021/03/05 00:00:46;;;;;;;129.55;68.72;;;;;;;2.86;100.00;98698.19;2089587;28;20305;-74
2021/03/05 00:01:55;;;;;;;124.63;66.32;;;;;;;2.89;100.00;98692.41;2088253;28;20227;-75
2021/03/05 00:02:59;;;;;;;121.15;67.13;;;;;;;2.93;100.00;98703.22;2088814;28;20231;-75
2021/03/05 00:04:06;;;;;;;123.30;64.95;;;;;;;2.93;100.00;98698.75;2089499;28;20629;-73
2021/03/05 00:05:10;;;;;;;125.53;67.95;;;;;;;2.91;100.00;98705.34;2088798;28;20230;-74
2021/03/05 00:06:15;;;;;;;128.90;69.20;;;;;;;2.84;100.00;98701.06;2089028;28;20603;-73
2021/03/05 00:07:23;;;;;;;134.05;70.28;;;;;;;2.85;100.00;98701.88;2088394;28;20226;-74
2021/03/05 00:08:25;;;;;;;120.20;66.13;;;;;;;2.89;100.00;98696.91;2088695;28;20222;-74
2021/03/05 00:09:29;;;;;;;136.63;71.38;;;;;;;2.76;100.00;98692.84;2088781;28;20227;-74
2021/03/05 00:10:36;;;;;;;125.18;70.28;;;;;;;2.77;100.00;98702.34;2089562;28;20226;-74
2021/03/05 00:11:42;;;;;;;131.57;70.03;;;;;;;2.84;100.00;98706.34;2088176;28;20226;-74
2021/03/05 00:12:53;;;;;;;119.07;64.13;;;;;;;2.75;100.00;98707.88;2088960;28;20736;-74
2021/03/05 00:13:59;;;;;;;116.70;65.13;;;;;;;2.70;100.00;98702.59;2092590;28;20222;-74
2021/03/05 00:15:05;;;;;;;121.30;63.45;;;;;;;2.72;100.00;98702.31;2088603;28;20229;-74
2021/03/05 00:16:10;;;;;;;123.28;65.13;;;;;;;2.70;100.00;98705.22;2096648;28;20226;-75
2021/03/05 00:17:15;;;;;;;120.65;62.03;;;;;;;2.70;100.00;98701.78;2088619;28;20245;-75
2021/03/05 00:18:23;;;;;;;113.10;62.63;;;;;;;2.67;100.00;98697.81;2088217;28;20222;-74
2021/03/05 00:19:28;;;;;;;121.97;61.83;;;;;;;2.57;100.00;98700.38;2097821;28;20226;-74
2021/03/05 00:20:36;;;;;;;108.10;59.70;;;;;;;2.63;100.00;98707.25;2089532;28;20755;-74
2021/03/05 00:21:43;;;;;;;113.43;63.35;;;;;;;2.48;100.00;98697.41;2087388;28;20227;-74
2021/03/05 00:22:47;;;;;;;123.20;63.88;;;;;;;2.56;100.00;98701.41;2088731;28;20227;-73
2021/03/05 00:23:59;;;;;;;120.13;62.80;;;;;;;2.55;100.00;98697.19;2103970;28;20217;-74
2021/03/05 00:25:04;;;;;;;121.57;62.20;;;;;;;2.48;100.00;98701.88;2102961;28;20221;-75
2021/03/05 00:26:08;;;;;;;118.35;61.65;;;;;;;2.46;100.00;98709.25;2088422;28;20235;-74
2021/03/05 00:27:10;;;;;;;115.22;60.47;;;;;;;2.48;100.00;98707.94;2083847;28;20285;-74
2021/03/05 00:28:22;;;;;;;107.45;55.67;;;;;;;2.53;100.00;98709.84;2088252;28;20229;-74
2021/03/05 00:29:25;;;;;;;113.13;59.10;;;;;;;2.35;100.00;98704.94;2094531;28;20226;-74
2021/03/05 00:30:30;;;;;;;110.25;57.90;;;;;;;2.48;100.00;98712.41;2089434;28;20222;-74
2021/03/05 00:31:37;;;;;;;115.53;61.17;;;;;;;2.46;100.00;98704.78;2088718;28;20230;-75
2021/03/05 00:32:46;;;;;;;114.20;60.42;;;;;;;2.49;100.00;98712.16;2092093;28;20762;-75
2021/03/05 00:33:51;;;;;;;107.40;59.70;;;;;;;2.47;100.00;98697.66;2093155;28;20226;-75
2021/03/05 00:34:59;;;;;;;113.78;58.70;;;;;;;2.46;100.00;98710.03;2088128;28;20540;-75
2021/03/05 00:36:04;;;;;;;117.57;62.67;;;;;;;2.41;100.00;98717.88;2088740;28;20701;-75
2021/03/05 00:37:06;;;;;;;120.82;61.33;;;;;;;2.38;100.00;98713.13;2090000;28;20268;-75
2021/03/05 00:38:11;;;;;;;119.18;59.17;;;;;;;2.38;100.00;98712.34;2088021;28;20306;-76
2021/03/05 00:39:14;;;;;;;107.25;58.80;;;;;;;2.27;100.00;98714.09;2088184;28;20218;-75
2021/03/05 00:40:23;;;;;;;109.75;58.42;;;;;;;2.17;100.00;98712.16;2088744;28;20226;-75
2021/03/05 00:41:25;;;;;;;105.63;57.80;;;;;;;2.03;100.00;98700.44;2088977;28;20318;-75
2021/03/05 00:42:30;;;;;;;121.55;61.85;;;;;;;2.04;100.00;98712.56;2087741;28;20296;-75
2021/03/05 00:43:37;;;;;;;106.18;58.72;;;;;;;1.94;100.00;98702.72;2091461;28;20296;-75
2021/03/05 00:44:44;;;;;;;115.47;57.63;;;;;;;2.08;100.00;98716.25;2088666;28;20634;-75
2021/03/05 00:45:47;;;;;;;124.10;61.42;;;;;;;2.04;100.00;98709.13;2097502;28;20684;-75
2021/03/05 00:46:58;;;;;;;118.85;62.40;;;;;;;1.98;100.00;98713.53;2097238;28;20703;-75
2021/03/05 00:48:00;;;;;;;115.55;59.25;;;;;;;2.02;100.00;98711.22;2087736;28;20219;-75
2021/03/05 00:49:06;;;;;;;114.38;62.28;;;;;;;1.97;100.00;98714.59;2088798;28;20223;-75
2021/03/05 00:50:11;;;;;;;124.15;62.53;;;;;;;1.94;100.00;98707.19;2104019;28;20635;-75
2021/03/05 00:51:17;;;;;;;115.03;61.00;;;;;;;1.98;100.00;98714.34;2097301;28;20233;-75
2021/03/05 00:52:23;;;;;;;119.32;61.85;;;;;;;1.92;100.00;98701.41;2096506;28;20612;-75
2021/03/05 00:53:28;;;;;;;130.32;64.43;;;;;;;1.92;100.00;98709.28;2082399;28;20275;-76
2021/03/05 00:54:31;;;;;;;116.82;61.85;;;;;;;1.98;100.00;98703.81;2089705;28;20245;-75
2021/03/05 00:55:38;;;;;;;119.30;61.40;;;;;;;1.91;100.00;98703.25;2088438;28;20309;-75
2021/03/05 00:56:47;;;;;;;125.05;61.22;;;;;;;1.95;100.00;98698.25;2081513;28;20615;-75
2021/03/05 00:57:59;;;;;;;126.10;63.03;;;;;;;2.00;100.00;98711.47;2080178;28;20222;-75
2021/03/05 00:59:05;;;;;;;120.88;65.72;;;;;;;2.05;100.00;98708.88;2096472;28;20218;-75
2021/03/05 01:00:12;;;;;;;112.22;63.15;;;;;;;2.03;100.00;98705.72;2093261;28;20241;-75
2021/03/05 01:01:17;;;;;;;114.15;61.33;;;;;;;1.93;100.00;98697.72;2088905;28;20222;-75
2021/03/05 01:02:25;;;;;;;121.18;63.05;;;;;;;1.84;100.00;98691.31;2084690;28;20732;-74
2021/03/05 01:03:30;;;;;;;119.22;62.85;;;;;;;1.84;100.00;98702.63;2087731;28;20238;-74
2021/03/05 01:04:38;;;;;;;117.53;63.15;;;;;;;1.85;100.00;98701.59;2096572;28;20253;-75
2021/03/05 01:05:46;;;;;;;121.15;64.72;;;;;;;1.83;100.00;98705.53;2087766;28;20227;-75
2021/03/05 01:06:55;;;;;;;125.15;64.05;;;;;;;1.75;100.00;98706.75;2080873;28;20290;-75
2021/03/05 01:08:01;;;;;;;132.18;63.63;;;;;;;1.72;100.00;98709.84;2087904;28;20340;-75
2021/03/05 01:09:14;;;;;;;121.43;62.50;;;;;;;1.79;100.00;98712.28;2081528;28;20227;-75
2021/03/05 01:10:19;;;;;;;130.23;66.47;;;;;;;1.67;100.00;98702.72;2096101;28;20221;-75
2021/03/05 01:11:25;;;;;;;126.80;65.05;;;;;;;1.70;100.00;98707.47;2089898;28;20682;-75
2021/03/05 01:12:28;;;;;;;127.28;64.03;;;;;;;1.69;100.00;98700.63;2081048;28;20235;-75
2021/03/05 01:13:33;;;;;;;129.57;64.72;;;;;;;1.64;100.00;98697.13;2088315;28;20227;-75
2021/03/05 01:14:40;;;;;;;119.38;63.72;;;;;;;1.65;100.00;98699.56;2090685;28;20226;-75
2021/03/05 01:15:47;;;;;;;138.43;66.55;;;;;;;1.59;100.00;98689.22;2089036;28;20230;-75
2021/03/05 01:16:54;;;;;;;129.55;65.22;;;;;;;1.60;100.00;98699.47;2087575;28;20280;-75
2021/03/05 01:18:01;;;;;;;136.65;64.25;;;;;;;1.58;100.00;98704.19;2088185;28;20238;-75
2021/03/05 01:19:06;;;;;;;128.05;63.50;;;;;;;1.59;100.00;98690.00;2089012;28;20222;-75
2021/03/05 01:20:14;;;;;;;134.00;66.38;;;;;;;1.59;100.00;98692.63;2091803;28;20598;-75
2021/03/05 01:21:20;;;;;;;125.38;64.00;;;;;;;1.61;100.00;98698.44;2088101;28;20226;-75
2021/03/05 01:22:25;;;;;;;126.65;63.10;;;;;;;1.62;100.00;98699.22;2088881;28;20242;-75
2021/03/05 01:23:29;;;;;;;131.18;64.95;;;;;;;1.58;100.00;98695.53;2088982;28;20227;-75
2021/03/05 01:24:37;;;;;;;133.50;66.68;;;;;;;1.61;100.00;98695.81;2088406;28;20219;-75
2021/03/05 01:25:44;;;;;;;125.65;67.35;;;;;;;1.53;100.00;98684.94;2096770;28;20221;-74
2021/03/05 01:26:47;;;;;;;137.00;68.35;;;;;;;1.50;100.00;98698.56;2097311;28;20222;-75
2021/03/05 01:27:59;;;;;;;132.60;65.03;;;;;;;1.57;100.00;98697.34;2096164;28;20225;-74
2021/03/05 01:29:04;;;;;;;132.50;65.55;;;;;;;1.58;100.00;98698.94;2096176;28;20264;-75
2021/03/05 01:30:10;;;;;;;131.73;65.82;;;;;;;1.64;100.00;98695.31;2097191;28;20218;-75
2021/03/05 01:31:14;;;;;;;131.18;66.60;;;;;;;1.64;100.00;98692.69;2096839;28;20279;-75
2021/03/05 01:32:18;;;;;;;135.38;66.72;;;;;;;1.65;100.00;98698.72;2097088;28;20712;-75
2021/03/05 01:33:25;;;;;;;144.27;68.32;;;;;;;1.66;100.00;98700.34;2097152;28;20264;-75
2021/03/05 01:34:28;;;;;;;139.43;71.43;;;;;;;1.58;100.00;98704.19;2096731;28;20230;-74
2021/03/05 01:35:34;;;;;;;134.13;66.20;;;;;;;1.53;100.00;98696.25;2097182;28;20225;-75
2021/03/05 01:36:39;;;;;;;134.05;68.82;;;;;;;1.53;100.00;98704.13;2089552;28;20222;-74
2021/03/05 01:37:46;;;;;;;138.27;68.88;;;;;;;1.52;100.00;98705.16;2087837;28;20219;-75
2021/03/05 01:38:53;;;;;;;135.18;69.85;;;;;;;1.49;100.00;98695.16;2087467;28;20679;-75
2021/03/05 01:40:00;;;;;;;139.60;68.07;;;;;;;1.46;100.00;98700.09;2087936;28;20232;-75
2021/03/05 01:41:04;;;;;;;142.55;68.25;;;;;;;1.46;100.00;98695.63;2088838;28;20673;-75
2021/03/05 01:42:09;;;;;;;132.55;65.63;;;;;;;1.50;100.00;98694.13;2088801;28;20230;-75
2021/03/05 01:43:14;;;;;;;133.68;66.43;;;;;;;1.59;100.00;98695.25;2090426;28;20227;-75
2021/03/05 01:44:18;;;;;;;138.38;69.13;;;;;;;1.58;100.00;98692.88;2087394;28;20219;-75
2021/03/05 01:45:25;;;;;;;135.18;67.75;;;;;;;1.61;100.00;98698.44;2087936;28;20233;-75
2021/03/05 01:46:30;;;;;;;128.82;65.90;;;;;;;1.59;100.00;98703.16;2088296;28;20237;-75
2021/03/05 01:47:36;;;;;;;129.68;64.45;;;;;;;1.61;100.00;98698.44;2087906;28;20230;-75
2021/03/05 01:48:46;;;;;;;132.60;63.95;;;;;;;1.54;100.00;98697.03;2079957;28;20254;-74
2021/03/05 01:49:47;;;;;;;140.63;69.35;;;;;;;1.56;100.00;98705.47;2088110;28;20302;-75
2021/03/05 01:50:59;;;;;;;134.45;66.22;;;;;;;1.61;100.00;98695.81;2095109;28;20218;-75
2021/03/05 01:52:04;;;;;;;126.10;61.97;;;;;;;1.56;100.00;98692.31;2086502;28;20662;-75
2021/03/05 01:53:10;;;;;;;131.45;63.88;;;;;;;1.55;100.00;98682.84;2085396;28;20250;-75
2021/03/05 01:54:14;;;;;;;130.70;65.30;;;;;;;1.50;100.00;98691.47;2091326;28;20732;-75
2021/03/05 01:55:17;;;;;;;123.20;62.42;;;;;;;1.45;100.00;98678.28;2088696;28;20621;-75
2021/03/05 01:56:38;;;;;;;117.32;63.15;;;;;;;1.45;100.00;98683.53;2088726;28;20326;-75
2021/03/05 01:57:46;;;;;;;119.18;61.60;;;;;;;1.46;100.00;98689.59;2090060;28;20713;-75
2021/03/05 01:58:51;;;;;;;123.38;61.13;;;;;;;1.43;100.00;98685.63;2087962;28;20215;-75
2021/03/05 01:59:57;;;;;;;127.18;62.05;;;;;;;1.40;100.00;98686.13;2089741;28;20252;-75
2021/03/05 02:01:06;;;;;;;130.23;64.30;;;;;;;1.39;100.00;98692.38;2092111;28;20290;-75
2021/03/05 02:02:10;;;;;;;130.27;63.92;;;;;;;1.42;100.00;98689.28;2090225;28;20257;-75
2021/03/05 02:03:15;;;;;;;126.63;62.83;;;;;;;1.42;100.00;98692.72;2088808;28;20314;-75
2021/03/05 02:04:23;;;;;;;122.47;61.65;;;;;;;1.54;100.00;98692.56;2087802;28;20233;-75
2021/03/05 02:05:27;;;;;;;123.88;60.55;;;;;;;1.52;100.00;98685.97;2087836;28;20245;-75
2021/03/05 02:06:31;;;;;;;122.95;59.58;;;;;;;1.47;100.00;98691.97;2095836;28;20580;-75
2021/03/05 02:07:38;;;;;;;120.10;59.50;;;;;;;1.46;100.00;98698.25;2087768;28;20240;-75
2021/03/05 02:08:46;;;;;;;119.45;59.63;;;;;;;1.41;100.00;98699.00;2088290;28;20556;-74
2021/03/05 02:09:50;;;;;;;115.10;59.20;;;;;;;1.40;100.00;98697.41;2096316;28;20218;-75
2021/03/05 02:10:56;;;;;;;114.18;61.00;;;;;;;1.37;100.00;98697.91;2096927;28;20699;-75
2021/03/05 02:12:02;;;;;;;128.32;60.05;;;;;;;1.35;100.00;98699.97;2103947;28;20224;-75
2021/03/05 02:13:06;;;;;;;121.70;59.75;;;;;;;1.28;100.00;98701.19;2104125;28;20287;-75
2021/03/05 02:14:10;;;;;;;116.00;59.08;;;;;;;1.15;100.00;98698.94;2096559;28;20717;-75
2021/03/05 02:15:14;;;;;;;116.57;58.95;;;;;;;1.10;100.00;98699.66;2094514;28;20236;-75
2021/03/05 02:16:28;;;;;;;118.20;60.08;;;;;;;1.01;100.00;98693.22;2087647;28;20252;-75
2021/03/05 02:17:36;;;;;;;117.85;58.40;;;;;;;0.97;100.00;98698.19;2088665;28;20217;-75
2021/03/05 02:18:47;;;;;;;113.28;58.17;;;;;;;0.90;100.00;98694.94;2096180;28;20218;-74
2021/03/05 02:20:05;;;;;;;112.18;57.63;;;;;;;0.87;100.00;98682.28;2087405;28;20242;-75
2021/03/05 02:21:28;;;;;;;114.70;55.97;;;;;;;0.84;100.00;98688.81;2085009;28;20685;-74
2021/03/05 02:22:52;;;;;;;116.43;58.00;;;;;;;0.91;100.00;98693.91;2093987;28;20275;-74
2021/03/05 02:24:08;;;;;;;115.72;57.88;;;;;;;0.94;100.00;98692.59;2088348;28;20246;-75
2021/03/05 02:25:22;;;;;;;122.50;59.70;;;;;;;0.96;100.00;98693.97;2088152;28;20313;-74
2021/03/05 02:26:55;;;;;;;109.80;59.00;;;;;;;0.93;100.00;98698.91;2088366;28;20664;-74
2021/03/05 02:28:36;;;;;;;118.40;61.03;;;;;;;0.86;100.00;98693.81;2089080;28;20725;-75
2021/03/05 02:30:12;;;;;;;116.45;57.70;;;;;;;0.76;100.00;98702.34;2088832;28;20245;-75
2021/03/05 02:31:25;;;;;;;112.68;58.13;;;;;;;0.65;100.00;98699.81;2073317;28;20223;-75
2021/03/05 02:32:34;;;;;;;113.10;56.83;;;;;;;0.59;100.00;98700.78;2087981;28;20272;-74
2021/03/05 02:33:53;;;;;;;114.55;56.63;;;;;;;0.60;100.00;98702.34;2088363;28;20245;-74
2021/03/05 02:34:59;;;;;;;102.68;55.28;;;;;;;0.54;100.00;98699.66;2090028;28;20222;-73
2021/03/05 02:36:04;;;;;;;114.88;56.97;;;;;;;0.55;100.00;98695.22;2088641;28;20222;-75
2021/03/05 02:37:10;;;;;;;115.57;59.70;;;;;;;0.47;100.00;98704.28;2088648;28;20272;-75
2021/03/05 02:38:17;;;;;;;116.53;58.47;;;;;;;0.43;100.00;98702.34;2086671;28;20288;-75
2021/03/05 02:39:23;;;;;;;119.25;59.03;;;;;;;0.42;100.00;98700.78;2080163;28;20235;-75
2021/03/05 02:40:33;;;;;;;114.70;59.08;;;;;;;0.39;100.00;98702.06;2087422;28;20253;-73
2021/03/05 02:41:46;;;;;;;125.60;60.03;;;;;;;0.38;100.00;98705.72;2088285;28;20314;-74
2021/03/05 02:42:55;;;;;;;116.60;59.90;;;;;;;0.35;100.00;98700.94;2088231;28;20237;-74
2021/03/05 02:44:00;;;;;;;118.35;59.10;;;;;;;0.27;100.00;98703.97;2087979;28;20242;-74
2021/03/05 02:45:05;;;;;;;114.07;56.55;;;;;;;0.27;100.00;98702.13;2088801;28;20736;-73
2021/03/05 02:46:10;;;;;;;121.28;59.33;;;;;;;0.29;100.00;98709.75;2086938;28;20280;-73
2021/03/05 02:47:17;;;;;;;119.57;58.63;;;;;;;0.26;100.00;98707.59;2087695;28;20245;-74
2021/03/05 02:48:28;;;;;;;122.20;58.63;;;;;;;0.27;100.00;98720.50;2088455;28;20230;-73
2021/03/05 02:49:38;;;;;;;111.05;55.47;;;;;;;0.23;100.00;98713.31;2086842;28;20225;-75
2021/03/05 02:50:44;;;;;;;109.68;55.67;;;;;;;0.27;100.00;98717.09;2087532;28;20832;-74
2021/03/05 02:51:56;;;;;;;126.10;58.70;;;;;;;0.25;100.00;98711.25;2088467;28;20218;-74
2021/03/05 02:53:04;;;;;;;119.43;56.33;;;;;;;0.27;100.00;98719.72;2090342;28;20222;-74
2021/03/05 02:54:08;;;;;;;124.40;56.83;;;;;;;0.25;100.00;98719.13;2088531;28;20734;-74
2021/03/05 02:55:14;;;;;;;118.72;54.85;;;;;;;0.22;100.00;98711.75;2096391;28;20226;-74
2021/03/05 02:56:22;;;;;;;113.22;54.83;;;;;;;0.18;100.00;98713.25;2096659;28;20218;-75
2021/03/05 02:57:28;;;;;;;119.28;55.05;;;;;;;0.13;100.00;98716.56;2096252;28;20225;-74
2021/03/05 02:58:38;;;;;;;110.70;56.28;;;;;;;0.15;100.00;98716.34;2096703;28;20308;-75
2021/03/05 02:59:44;;;;;;;103.88;54.35;;;;;;;0.15;100.00;98719.75;2089561;28;20223;-75
2021/03/05 03:00:47;;;;;;;110.80;55.22;;;;;;;0.10;100.00;98708.41;2080818;28;20246;-75
2021/03/05 03:01:58;;;;;;;109.63;52.90;;;;;;;0.10;100.00;98711.81;2094752;28;20230;-74
2021/03/05 03:03:06;;;;;;;112.57;55.13;;;;;;;0.08;100.00;98710.44;2088193;28;20673;-75
2021/03/05 03:04:10;;;;;;;108.07;54.33;;;;;;;0.13;100.00;98728.91;2087433;28;20222;-75
2021/03/05 03:05:16;;;;;;;103.22;52.17;;;;;;;0.16;100.00;98717.91;2089239;28;20230;-75
2021/03/05 03:06:23;;;;;;;102.80;52.08;;;;;;;0.15;100.00;98721.59;2089884;28;20337;-75
2021/03/05 03:07:28;;;;;;;100.70;51.47;;;;;;;0.05;100.00;98703.84;2091743;28;20230;-75
2021/03/05 03:08:32;;;;;;;109.30;51.67;;;;;;;0.17;100.00;98715.06;2088870;28;20300;-75
2021/03/05 03:09:42;;;;;;;107.85;50.28;;;;;;;0.14;100.00;98717.38;2089395;28;20229;-75
2021/03/05 03:10:47;;;;;;;100.88;50.95;;;;;;;0.09;100.00;98717.28;2098177;28;20228;-75
2021/03/05 03:11:58;;;;;;;108.72;51.55;;;;;;;0.15;100.00;98713.72;2089918;28;20214;-75
2021/03/05 03:13:04;;;;;;;106.93;51.42;;;;;;;0.16;100.00;98712.69;2098748;28;20672;-75
2021/03/05 03:14:08;;;;;;;103.80;50.05;;;;;;;0.14;100.00;98712.91;2097028;28;20245;-75
2021/03/05 03:15:12;;;;;;;100.32;50.45;;;;;;;0.16;100.00;98718.72;2088755;28;20279;-75
2021/03/05 03:16:22;;;;;;;97.25;49.45;;;;;;;0.15;100.00;98711.88;2081081;28;20238;-74
2021/03/05 03:17:25;;;;;;;106.55;51.22;;;;;;;0.17;100.00;98711.63;2082641;28;20238;-74
2021/03/05 03:18:33;;;;;;;95.30;49.95;;;;;;;0.10;100.00;98700.53;2089240;28;20678;-74
2021/03/05 03:19:40;;;;;;;98.00;49.33;;;;;;;0.16;100.00;98715.31;2095871;28;20222;-74
2021/03/05 03:20:47;;;;;;;100.47;48.05;;;;;;;0.20;100.00;98717.22;2097153;28;20225;-74
2021/03/05 03:21:55;;;;;;;101.30;48.25;;;;;;;0.22;100.00;98714.38;2098093;28;20644;-74
2021/03/05 03:23:02;;;;;;;91.07;45.67;;;;;;;0.24;100.00;98713.09;2097691;28;20275;-74
2021/03/05 03:24:06;;;;;;;93.55;45.58;;;;;;;0.23;100.00;98711.50;2097430;28;20639;-74
2021/03/05 03:25:12;;;;;;;85.93;45.17;;;;;;;0.28;100.00;98710.81;2091034;28;20253;-74
2021/03/05 03:26:17;;;;;;;79.45;44.40;;;;;;;0.27;100.00;98702.13;2089063;28;20223;-74
2021/03/05 03:27:23;;;;;;;80.15;44.65;;;;;;;0.30;100.00;98708.72;2089000;28;20238;-74
2021/03/05 03:28:28;;;;;;;74.20;42.35;;;;;;;0.25;100.00;98701.56;2087946;28;20257;-74
2021/03/05 03:29:33;;;;;;;79.60;44.47;;;;;;;0.19;100.00;98697.28;2089217;28;20589;-74
2021/03/05 03:30:40;;;;;;;80.28;43.78;;;;;;;0.25;100.00;98713.88;2091808;28;20211;-73
2021/03/05 03:31:47;;;;;;;83.40;44.67;;;;;;;0.21;100.00;98708.31;2096226;28;20295;-74
2021/03/05 03:32:55;;;;;;;76.10;43.15;;;;;;;0.21;100.00;98715.41;2097438;28;20226;-74
2021/03/05 03:34:02;;;;;;;80.05;42.13;;;;;;;0.15;100.00;98706.63;2090830;28;20555;-74
2021/03/05 03:35:05;;;;;;;86.07;43.72;;;;;;;0.16;100.00;98710.06;2089850;28;20218;-74
2021/03/05 03:36:12;;;;;;;79.05;42.83;;;;;;;0.16;100.00;98710.06;2104755;28;20706;-74
2021/03/05 03:37:18;;;;;;;79.70;42.72;;;;;;;0.18;100.00;98713.25;2088788;28;20226;-74
2021/03/05 03:38:25;;;;;;;75.90;42.08;;;;;;;0.21;100.00;98710.94;2097203;28;20221;-74
2021/03/05 03:39:28;;;;;;;82.50;43.25;;;;;;;0.25;100.00;98711.25;2096433;28;20283;-74
2021/03/05 03:40:32;;;;;;;80.75;42.95;;;;;;;0.26;100.00;98712.84;2097528;28;20224;-75
2021/03/05 03:41:38;;;;;;;78.70;43.28;;;;;;;0.26;100.00;98712.84;2090356;28;20223;-75
2021/03/05 03:42:46;;;;;;;70.10;41.13;;;;;;;0.36;100.00;98718.28;2097688;28;20271;-74
2021/03/05 03:43:48;;;;;;;71.32;40.72;;;;;;;0.33;100.00;98723.97;2097828;28;20313;-74
2021/03/05 03:44:58;;;;;;;69.20;41.38;;;;;;;0.30;100.00;98713.19;2097970;28;20572;-74
2021/03/05 03:46:03;;;;;;;67.70;42.95;;;;;;;0.34;100.00;98712.44;2097624;28;20230;-74
2021/03/05 03:47:06;;;;;;;75.80;40.97;;;;;;;0.31;100.00;98714.78;2097942;28;20232;-75
2021/03/05 03:48:12;;;;;;;68.80;41.42;;;;;;;0.25;100.00;98706.81;2097634;28;20226;-75
2021/03/05 03:49:25;;;;;;;68.28;41.38;;;;;;;0.38;100.00;98724.06;2097908;28;20315;-74
2021/03/05 03:50:32;;;;;;;69.63;40.47;;;;;;;0.38;100.00;98716.22;2089335;28;20227;-75
2021/03/05 03:51:40;;;;;;;76.00;43.22;;;;;;;0.40;100.00;98703.63;2088831;28;20603;-75
2021/03/05 03:52:51;;;;;;;74.35;41.08;;;;;;;0.47;100.00;98708.72;2088592;28;20230;-74
2021/03/05 03:53:59;;;;;;;76.47;41.83;;;;;;;0.41;100.00;98704.44;2094876;28;20715;-74
2021/03/05 03:55:06;;;;;;;63.72;40.00;;;;;;;0.44;100.00;98704.78;2097272;28;20582;-75
2021/03/05 03:56:10;;;;;;;62.78;39.53;;;;;;;0.44;100.00;98714.47;2091318;28;20227;-75
2021/03/05 03:57:17;;;;;;;68.30;38.88;;;;;;;0.45;100.00;98708.19;2089575;28;20230;-75
2021/03/05 03:58:23;;;;;;;62.13;38.53;;;;;;;0.44;100.00;98710.00;2087847;28;20223;-75
2021/03/05 03:59:28;;;;;;;78.68;41.70;;;;;;;0.38;100.00;98707.53;2088306;28;20241;-75
2021/03/05 04:00:33;;;;;;;74.72;40.60;;;;;;;0.41;100.00;98707.06;2088722;28;20215;-75
2021/03/05 04:01:40;;;;;;;64.25;39.13;;;;;;;0.55;100.00;98711.75;2088896;28;20214;-75
2021/03/05 04:02:55;;;;;;;69.63;41.72;;;;;;;0.49;100.00;98717.94;2088889;28;20246;-75
2021/03/05 04:04:02;;;;;;;62.53;37.97;;;;;;;0.41;100.00;98714.94;2088913;28;20309;-75
2021/03/05 04:05:10;;;;;;;71.78;39.00;;;;;;;0.35;100.00;98719.31;2089574;28;20244;-75
2021/03/05 04:06:14;;;;;;;61.55;39.20;;;;;;;0.37;100.00;98719.88;2089093;28;20230;-75
2021/03/05 04:07:22;;;;;;;74.28;40.75;;;;;;;0.34;100.00;98719.53;2089423;28;20230;-74
2021/03/05 04:08:25;;;;;;;63.97;39.22;;;;;;;0.34;100.00;98730.81;2089044;28;20237;-75
2021/03/05 04:09:32;;;;;;;73.00;40.80;;;;;;;0.33;100.00;98731.06;2088432;28;20235;-75
2021/03/05 04:10:41;;;;;;;72.38;41.40;;;;;;;0.32;100.00;98738.13;2088825;28;20218;-75
2021/03/05 04:11:47;;;;;;;75.55;40.22;;;;;;;0.31;100.00;98735.75;2089240;28;20310;-75
2021/03/05 04:12:55;;;;;;;71.57;41.05;;;;;;;0.32;100.00;98742.59;2087978;28;20693;-75
2021/03/05 04:14:01;;;;;;;75.20;44.25;;;;;;;0.30;100.00;98748.09;2081911;28;20698;-74
2021/03/05 04:15:06;;;;;;;71.88;40.55;;;;;;;0.33;100.00;98746.81;2090406;28;20227;-75
2021/03/05 04:16:10;;;;;;;77.45;41.67;;;;;;;0.27;100.00;98738.88;2091306;28;20218;-75
2021/03/05 04:17:14;;;;;;;69.55;40.95;;;;;;;0.28;100.00;98750.94;2089505;28;20310;-74
2021/03/05 04:18:22;;;;;;;82.47;42.22;;;;;;;0.22;100.00;98740.59;2089369;28;20272;-76
2021/03/05 04:19:25;;;;;;;73.40;41.25;;;;;;;0.26;100.00;98746.94;2089229;28;20661;-75
2021/03/05 04:20:33;;;;;;;81.35;42.08;;;;;;;0.31;100.00;98746.25;2089452;28;20690;-75
2021/03/05 04:21:38;;;;;;;73.97;44.85;;;;;;;0.26;100.00;98747.78;2087968;28;20588;-74
2021/03/05 04:22:46;;;;;;;71.85;43.55;;;;;;;0.27;100.00;98751.19;2089011;28;20230;-75
2021/03/05 04:23:53;;;;;;;70.97;43.25;;;;;;;0.27;100.00;98757.22;2089425;28;20231;-75
2021/03/05 04:25:00;;;;;;;74.22;42.80;;;;;;;0.32;100.00;98756.50;2090251;28;20758;-75
2021/03/05 04:26:04;;;;;;;72.55;43.45;;;;;;;0.29;100.00;98743.88;2088486;28;20583;-75
2021/03/05 04:27:13;;;;;;;77.40;46.20;;;;;;;0.33;100.00;98755.47;2088674;28;20294;-75
2021/03/05 04:28:19;;;;;;;71.75;42.03;;;;;;;0.29;100.00;98749.13;2088224;28;20226;-75
2021/03/05 04:29:25;;;;;;;74.93;42.88;;;;;;;0.29;100.00;98754.38;2088671;28;20230;-75
2021/03/05 04:30:28;;;;;;;72.45;42.20;;;;;;;0.23;100.00;98748.22;2090976;28;20226;-74
2021/03/05 04:31:35;;;;;;;75.28;41.55;;;;;;;0.26;100.00;98763.50;2088541;28;20655;-75
2021/03/05 04:32:41;;;;;;;73.15;41.42;;;;;;;0.23;100.00;98763.97;2092537;28;20229;-75
2021/03/05 04:33:47;;;;;;;79.10;44.00;;;;;;;0.20;100.00;98755.78;2087930;28;20253;-75
2021/03/05 04:34:58;;;;;;;77.28;45.72;;;;;;;0.18;100.00;98768.34;2092150;28;20252;-75
2021/03/05 04:36:06;;;;;;;73.43;43.55;;;;;;;0.18;100.00;98763.09;2088414;28;20227;-74
2021/03/05 04:37:10;;;;;;;79.60;44.65;;;;;;;0.20;100.00;98759.19;2089017;28;20669;-74
2021/03/05 04:38:14;;;;;;;68.38;43.30;;;;;;;0.21;100.00;98760.00;2088551;28;20284;-74
2021/03/05 04:39:21;;;;;;;82.75;44.15;;;;;;;0.17;100.00;98761.47;2088578;28;20600;-74
2021/03/05 04:40:25;;;;;;;74.68;42.85;;;;;;;0.16;100.00;98758.06;2088994;28;20231;-74
2021/03/05 04:41:28;;;;;;;78.93;42.80;;;;;;;0.18;100.00;98769.13;2089273;28;20226;-75
2021/03/05 04:42:32;;;;;;;74.95;42.88;;;;;;;0.22;100.00;98770.25;2088808;28;20219;-75
2021/03/05 04:43:38;;;;;;;74.13;42.22;;;;;;;0.19;100.00;98764.69;2089261;28;20242;-74
2021/03/05 04:44:46;;;;;;;75.65;42.65;;;;;;;0.22;100.00;98769.44;2097091;28;20551;-74
2021/03/05 04:45:51;;;;;;;70.53;42.22;;;;;;;0.21;100.00;98770.50;2097609;28;20704;-75
2021/03/05 04:46:59;;;;;;;82.57;43.05;;;;;;;0.22;100.00;98772.88;2096080;28;20611;-74
2021/03/05 04:48:04;;;;;;;67.15;41.75;;;;;;;0.22;100.00;98775.50;2097603;28;20657;-75
2021/03/05 04:49:10;;;;;;;71.60;42.42;;;;;;;0.23;100.00;98765.78;2092758;28;20222;-75
2021/03/05 04:50:14;;;;;;;67.90;41.80;;;;;;;0.21;100.00;98773.09;2088323;28;20227;-75
2021/03/05 04:51:24;;;;;;;70.90;41.90;;;;;;;0.22;100.00;98769.44;2089277;28;20305;-75
2021/03/05 04:52:28;;;;;;;64.28;40.20;;;;;;;0.21;100.00;98765.25;2088813;28;20696;-75
2021/03/05 04:53:35;;;;;;;76.55;41.65;;;;;;;0.25;100.00;98774.22;2096155;28;20222;-76
2021/03/05 04:54:39;;;;;;;72.57;41.53;;;;;;;0.27;100.00;98762.47;2095424;28;20226;-75
2021/03/05 04:55:46;;;;;;;71.05;41.50;;;;;;;0.32;100.00;98774.88;2088005;28;20222;-75
2021/03/05 04:56:52;;;;;;;68.43;40.55;;;;;;;0.25;100.00;98758.47;2088676;28;20223;-75
2021/03/05 04:57:59;;;;;;;67.88;39.85;;;;;;;0.23;100.00;98757.94;2092026;28;20237;-74
2021/03/05 04:59:04;;;;;;;65.85;38.70;;;;;;;0.31;100.00;98767.25;2086364;28;20306;-75
2021/03/05 05:00:10;;;;;;;75.40;39.28;;;;;;;0.26;100.00;98770.56;2090446;28;20210;-75
2021/03/05 05:01:14;;;;;;;73.13;41.55;;;;;;;0.24;100.00;98765.56;2087649;28;20233;-73
2021/03/05 05:02:22;;;;;;;73.25;38.80;;;;;;;0.24;100.00;98767.38;2088490;28;20230;-74
2021/03/05 05:03:27;;;;;;;67.10;38.35;;;;;;;0.22;100.00;98770.25;2092482;28;20585;-73
2021/03/05 05:04:29;;;;;;;66.95;37.80;;;;;;;0.24;100.00;98770.00;2089215;28;20222;-74
2021/03/05 05:05:39;;;;;;;64.50;37.90;;;;;;;0.24;100.00;98762.94;2089070;28;20218;-74